createdAt,value
2023-01-29T00:02:41.673Z,100951.81
2023-01-29T00:05:45.294Z,100945.66
2023-01-29T00:08:48.142Z,100948.09
2023-01-29T00:11:51.363Z,100944.97
2023-01-29T00:14:54.947Z,100951.34
2023-01-29T00:17:58.828Z,100956.34
2023-01-29T00:21:01.254Z,100961.66
2023-01-29T00:24:04.249Z,100967.31
2023-01-29T00:27:06.762Z,100968.97
2023-01-29T00:30:12.854Z,100965.94
2023-01-29T00:33:15.228Z,100967.78
2023-01-29T00:36:20.033Z,100970.34
2023-01-29T00:39:31.372Z,100974.38
2023-01-29T00:42:57.968Z,100978.63
2023-01-29T00:46:00.379Z,100980.53
2023-01-29T00:49:04.497Z,100976.56
2023-01-29T00:52:25.277Z,100980.03
2023-01-29T00:55:28.252Z,100980.75
2023-01-29T00:58:34.472Z,100982.13
2023-01-29T01:01:55.907Z,100981.91
2023-01-29T01:04:58.426Z,100980.28
2023-01-29T01:08:01.568Z,100981.78
2023-01-29T01:11:06.426Z,100982.03
2023-01-29T01:14:09.679Z,100978.91
2023-01-29T01:17:12.268Z,100979.25
2023-01-29T01:20:16.034Z,100979.72
2023-01-29T01:23:19.798Z,100975.22
2023-01-29T01:26:22.730Z,100980.16
2023-01-29T01:29:25.286Z,100977.97
2023-01-29T01:32:28.171Z,100988.97
2023-01-29T01:35:31.091Z,100986.09
2023-01-29T01:38:34.323Z,100979.13
2023-01-29T01:41:37.153Z,100994.62
2023-01-29T01:44:53.990Z,100989.91
2023-01-29T01:48:16.582Z,100992.41
2023-01-29T01:51:22.011Z,101004.31
2023-01-29T01:54:30.132Z,101000.16
2023-01-29T01:57:34.185Z,101007.66
2023-01-29T02:00:39.592Z,101004.62
2023-01-29T02:04:13.416Z,101000.66
2023-01-29T02:07:35.663Z,101010.25
2023-01-29T02:10:42.980Z,101003.75
2023-01-29T02:13:53.774Z,101005.94
2023-01-29T02:17:01.914Z,101007.50
2023-01-29T02:20:26.510Z,101013.63
2023-01-29T02:23:51.695Z,101016.66
2023-01-29T02:27:26.304Z,101023.53
2023-01-29T02:30:36.351Z,101020.97
2023-01-29T02:33:53.272Z,101018.78
2023-01-29T02:37:08.257Z,101029.41
2023-01-29T02:40:34.039Z,101025.62
2023-01-29T02:43:54.148Z,101023.13
2023-01-29T02:47:05.725Z,101018.03
2023-01-29T02:50:20.332Z,101023.13
2023-01-29T02:53:47.453Z,101035.47
2023-01-29T02:56:58.748Z,101029.91
2023-01-29T03:00:10.891Z,101032.66
2023-01-29T03:03:21.046Z,101039.53
2023-01-29T03:06:37.481Z,101043.56
2023-01-29T03:09:46.553Z,101039.75
2023-01-29T03:12:59.780Z,101044.03
2023-01-29T03:16:09.022Z,101047.13
2023-01-29T03:19:22.242Z,101041.53
2023-01-29T03:22:30.159Z,101044.31
2023-01-29T03:25:56.891Z,101049.75
2023-01-29T03:29:24.859Z,101046.91
2023-01-29T03:32:30.903Z,101052.28
2023-01-29T03:35:39.613Z,101055.75
2023-01-29T03:38:43.381Z,101059.22
2023-01-29T03:42:09.152Z,101054.81
2023-01-29T03:45:21.891Z,101055.25
2023-01-29T03:48:35.606Z,101067.22
2023-01-29T03:52:04.379Z,101064.28
2023-01-29T03:55:24.416Z,101071.84
2023-01-29T03:58:47.659Z,101069.59
2023-01-29T04:01:59.359Z,101061.47
2023-01-29T04:05:10.155Z,101066.06
2023-01-29T04:08:22.869Z,101073.25
2023-01-29T04:11:28.915Z,101062.44
2023-01-29T04:14:33.481Z,101062.94
2023-01-29T04:17:41.975Z,101063.75
2023-01-29T04:20:46.505Z,101067.44
2023-01-29T04:23:49.617Z,101068.25
2023-01-29T04:27:05.082Z,101061.25
2023-01-29T04:30:30.635Z,101059.53
2023-01-29T04:34:11.460Z,101053.75
2023-01-29T04:37:30.687Z,101061.16
2023-01-29T04:40:48.041Z,101056.19
2023-01-29T04:44:14.817Z,101055.75
2023-01-29T04:47:29.168Z,101053.25
2023-01-29T04:50:54.398Z,101070.16
2023-01-29T04:54:07.848Z,101067.41
2023-01-29T04:57:28.941Z,101064.53
2023-01-29T05:00:36.190Z,101062.62
2023-01-29T05:03:42.704Z,101073.03
2023-01-29T05:06:47.403Z,101063.56
2023-01-29T05:09:51.209Z,101057.13
2023-01-29T05:13:00.470Z,101054.84
2023-01-29T05:16:10.207Z,101064.50
2023-01-29T05:19:15.048Z,101071.19
2023-01-29T05:22:22.713Z,101066.44
2023-01-29T05:25:31.102Z,101067.59
2023-01-29T05:28:36.054Z,101066.25
2023-01-29T05:31:38.619Z,101060.13
2023-01-29T05:34:42.331Z,101055.13
2023-01-29T05:37:44.693Z,101059.78
2023-01-29T05:40:47.657Z,101065.53
2023-01-29T05:43:50.058Z,101064.06
2023-01-29T05:46:53.110Z,101058.41
2023-01-29T05:49:55.476Z,101060.66
2023-01-29T05:53:02.293Z,101060.91
2023-01-29T05:56:05.217Z,101056.41
2023-01-29T05:59:08.003Z,101074.00
2023-01-29T06:02:10.478Z,101069.56
2023-01-29T06:05:16.164Z,101069.94
2023-01-29T06:08:18.581Z,101070.97
2023-01-29T06:11:22.867Z,101071.47
2023-01-29T06:14:25.404Z,101083.66
2023-01-29T06:17:28.098Z,101079.94
2023-01-29T06:20:30.498Z,101087.06
2023-01-29T06:23:33.425Z,101088.25
2023-01-29T06:26:35.863Z,101093.44
2023-01-29T06:29:38.897Z,101094.47
2023-01-29T06:32:41.276Z,101106.53
2023-01-29T06:35:44.200Z,101107.47
2023-01-29T06:38:49.724Z,101119.03
2023-01-29T06:41:52.665Z,101116.97
2023-01-29T06:44:58.247Z,101124.97
2023-01-29T06:48:01.638Z,101133.16
2023-01-29T06:51:13.916Z,101133.72
2023-01-29T06:54:16.688Z,101124.81
2023-01-29T06:57:19.077Z,101130.81
2023-01-29T07:00:21.969Z,101133.00
2023-01-29T07:03:24.215Z,101126.34
2023-01-29T07:06:28.942Z,101129.72
2023-01-29T07:09:32.792Z,101131.53
2023-01-29T07:12:35.879Z,101132.34
2023-01-29T07:15:38.430Z,101135.16
2023-01-29T07:18:41.420Z,101133.72
2023-01-29T07:21:46.066Z,101131.78
2023-01-29T07:24:48.975Z,101130.97
2023-01-29T07:27:53.198Z,101124.25
2023-01-29T07:30:57.752Z,101120.16
2023-01-29T07:34:00.150Z,101121.81
2023-01-29T07:37:03.195Z,101117.41
2023-01-29T07:40:14.398Z,101116.50
2023-01-29T07:43:17.625Z,101108.94
2023-01-29T07:46:20.109Z,101115.69
2023-01-29T07:49:22.886Z,101104.81
2023-01-29T07:52:31.117Z,101103.06
2023-01-29T07:55:34.197Z,101105.84
2023-01-29T07:58:37.118Z,101101.22
2023-01-29T08:01:39.793Z,101117.25
2023-01-29T08:04:42.671Z,101112.31
2023-01-29T08:07:49.351Z,101105.75
2023-01-29T08:10:57.188Z,101099.13
2023-01-29T08:13:59.518Z,101102.13
2023-01-29T08:17:02.181Z,101120.34
2023-01-29T08:20:06.252Z,101107.72
2023-01-29T08:23:15.825Z,101109.59
2023-01-29T08:26:18.233Z,101114.56
2023-01-29T08:29:20.884Z,101114.22
2023-01-29T08:32:23.351Z,101125.13
2023-01-29T08:35:26.812Z,101129.75
2023-01-29T08:38:29.640Z,101127.09
2023-01-29T08:41:32.945Z,101131.84
2023-01-29T08:44:35.312Z,101137.59
2023-01-29T08:47:38.013Z,101142.97
2023-01-29T08:50:40.466Z,101146.00
2023-01-29T08:53:43.272Z,101144.72
2023-01-29T08:56:45.862Z,101147.84
2023-01-29T08:59:48.707Z,101168.16
2023-01-29T09:02:51.709Z,101169.66
2023-01-29T09:05:54.661Z,101176.72
2023-01-29T09:08:57.415Z,101175.09
2023-01-29T09:12:00.114Z,101178.44
2023-01-29T09:15:02.620Z,101174.97
2023-01-29T09:18:06.019Z,101174.75
2023-01-29T09:21:08.880Z,101180.88
2023-01-29T09:24:11.949Z,101176.56
2023-01-29T09:27:14.423Z,101177.56
2023-01-29T09:30:17.887Z,101181.75
2023-01-29T09:33:21.582Z,101177.72
2023-01-29T09:36:24.605Z,101182.97
2023-01-29T09:39:30.184Z,101184.59
2023-01-29T09:42:50.682Z,101186.22
2023-01-29T09:46:19.440Z,101186.31
2023-01-29T09:49:28.929Z,101187.94
2023-01-29T09:52:40.225Z,101189.19
2023-01-29T09:55:49.903Z,101185.50
2023-01-29T09:58:52.531Z,101192.81
2023-01-29T10:02:43.370Z,101190.06
2023-01-29T10:06:21.686Z,101195.16
2023-01-29T10:09:39.152Z,101200.75
2023-01-29T10:12:51.337Z,101193.44
2023-01-29T10:16:41.543Z,101185.50
2023-01-29T10:20:14.001Z,101196.63
2023-01-29T10:23:26.025Z,101204.31
2023-01-29T10:26:29.973Z,101201.41
2023-01-29T10:29:34.547Z,101190.84
2023-01-29T10:32:40.753Z,101191.75
2023-01-29T10:35:46.471Z,101189.87
2023-01-29T10:38:52.849Z,101199.75
2023-01-29T10:42:20.900Z,101193.13
2023-01-29T10:45:46.023Z,101192.84
2023-01-29T10:49:21.718Z,101190.66
2023-01-29T10:52:51.332Z,101177.88
2023-01-29T10:56:23.727Z,101180.22
2023-01-29T10:59:53.771Z,101178.03
2023-01-29T11:02:56.417Z,101167.50
2023-01-29T11:06:19.050Z,101162.78
2023-01-29T11:09:33.187Z,101154.50
2023-01-29T11:12:38.864Z,101144.94
2023-01-29T11:15:41.349Z,101154.88
2023-01-29T11:18:56.470Z,101145.19
2023-01-29T11:22:01.371Z,101136.03
2023-01-29T11:25:18.874Z,101127.34
2023-01-29T11:28:41.090Z,101123.78
2023-01-29T11:31:45.599Z,101109.41
2023-01-29T11:35:20.672Z,101125.06
2023-01-29T11:38:28.822Z,101113.50
2023-01-29T11:41:42.225Z,101118.16
2023-01-29T11:44:45.272Z,101105.31
2023-01-29T11:47:54.360Z,101100.91
2023-01-29T11:51:04.852Z,101106.56
2023-01-29T11:54:18.241Z,101096.38
2023-01-29T11:57:29.432Z,101095.50
2023-01-29T12:00:36.793Z,101083.78
2023-01-29T12:03:46.186Z,101083.41
2023-01-29T12:06:52.770Z,101077.84
2023-01-29T12:09:58.426Z,101078.31
2023-01-29T12:13:04.721Z,101082.25
2023-01-29T12:17:00.388Z,101084.22
2023-01-29T12:20:18.504Z,101080.28
2023-01-29T12:23:44.427Z,101081.06
2023-01-29T12:26:55.021Z,101075.38
2023-01-29T12:30:10.217Z,101072.75
2023-01-29T12:33:32.225Z,101072.53
2023-01-29T12:36:53.214Z,101067.09
2023-01-29T12:39:55.944Z,101065.22
2023-01-29T12:43:05.603Z,101065.56
2023-01-29T12:46:21.439Z,101079.59
2023-01-29T12:49:39.988Z,101079.00
2023-01-29T12:52:51.920Z,101079.81
2023-01-29T12:56:09.713Z,101067.28
2023-01-29T12:59:24.592Z,101070.16
2023-01-29T13:02:44.606Z,101061.09
2023-01-29T13:06:13.915Z,101057.09
2023-01-29T13:09:22.119Z,101056.25
2023-01-29T13:12:24.851Z,101048.28
2023-01-29T13:15:38.790Z,101041.00
2023-01-29T13:18:46.197Z,101032.41
2023-01-29T13:21:54.165Z,101024.53
2023-01-29T13:25:04.552Z,101027.56
2023-01-29T13:28:18.285Z,101027.44
2023-01-29T13:31:34.820Z,101012.12
2023-01-29T13:34:45.441Z,101001.16
2023-01-29T13:37:53.927Z,101002.56
2023-01-29T13:41:03.134Z,100995.34
2023-01-29T13:44:08.169Z,101006.13
2023-01-29T13:47:22.179Z,101012.84
2023-01-29T13:50:41.376Z,101019.34
2023-01-29T13:53:52.761Z,101004.50
2023-01-29T13:56:55.035Z,101008.62
2023-01-29T13:59:58.917Z,101012.56
2023-01-29T14:03:01.377Z,101000.78
2023-01-29T14:06:04.625Z,100995.94
2023-01-29T14:09:38.732Z,100984.47
2023-01-29T14:12:43.606Z,100996.87
2023-01-29T14:16:07.127Z,101015.16
2023-01-29T14:19:19.083Z,101013.06
2023-01-29T14:22:28.882Z,101010.88
2023-01-29T14:25:34.934Z,101008.00
2023-01-29T14:28:37.608Z,101004.78
2023-01-29T14:31:43.639Z,101006.78
2023-01-29T14:34:51.172Z,101015.31
2023-01-29T14:37:59.173Z,101011.06
2023-01-29T14:41:06.055Z,101011.56
2023-01-29T14:44:45.988Z,101018.41
2023-01-29T14:47:48.244Z,101011.34
2023-01-29T14:50:53.239Z,101013.53
2023-01-29T14:54:11.985Z,101015.28
2023-01-29T14:57:18.085Z,101014.47
2023-01-29T15:00:30.163Z,101014.94
2023-01-29T15:03:43.839Z,101022.25
2023-01-29T15:06:56.322Z,101012.72
2023-01-29T15:10:22.335Z,101012.59
2023-01-29T15:13:38.084Z,101020.81
2023-01-29T15:16:53.258Z,101025.00
2023-01-29T15:19:56.862Z,101015.50
2023-01-29T15:23:00.696Z,101011.53
2023-01-29T15:26:07.118Z,101015.12
2023-01-29T15:29:24.240Z,101023.25
2023-01-29T15:32:31.506Z,101008.09
2023-01-29T15:35:41.406Z,101001.56
2023-01-29T15:38:43.799Z,101007.41
2023-01-29T15:41:47.192Z,101014.62
2023-01-29T15:44:49.593Z,101016.31
2023-01-29T15:47:55.363Z,101011.50
2023-01-29T15:50:58.969Z,101014.81
2023-01-29T15:54:08.063Z,101024.81
2023-01-29T15:57:21.279Z,101021.19
2023-01-29T16:00:27.727Z,101030.88
2023-01-29T16:03:33.564Z,101023.94
2023-01-29T16:06:38.942Z,101032.66
2023-01-29T16:09:43.402Z,101032.66
2023-01-29T16:12:51.368Z,101031.75
2023-01-29T16:16:07.669Z,101035.38
2023-01-29T16:19:21.162Z,101031.19
2023-01-29T16:22:25.314Z,101033.03
2023-01-29T16:25:30.380Z,101030.94
2023-01-29T16:28:39.349Z,101037.50
2023-01-29T16:31:44.812Z,101046.06
2023-01-29T16:34:49.849Z,101047.28
2023-01-29T16:37:56.004Z,101053.75
2023-01-29T16:41:08.468Z,101057.25
2023-01-29T16:44:16.822Z,101051.94
2023-01-29T16:47:36.665Z,101053.47
2023-01-29T16:50:53.872Z,101058.34
2023-01-29T16:54:06.480Z,101062.88
2023-01-29T16:57:18.407Z,101062.28
2023-01-29T17:00:27.685Z,101065.06
2023-01-29T17:03:36.117Z,101061.84
2023-01-29T17:06:46.087Z,101058.38
2023-01-29T17:09:54.443Z,101062.53
2023-01-29T17:13:20.435Z,101063.97
2023-01-29T17:16:34.648Z,101060.75
2023-01-29T17:19:37.705Z,101060.16
2023-01-29T17:22:43.251Z,101055.91
2023-01-29T17:25:52.980Z,101063.63
2023-01-29T17:28:56.400Z,101055.66
2023-01-29T17:32:00.376Z,101049.84
2023-01-29T17:35:03.465Z,101050.72
2023-01-29T17:38:11.544Z,101048.06
2023-01-29T17:41:27.155Z,101035.22
2023-01-29T17:44:30.086Z,101042.22
2023-01-29T17:47:32.593Z,101031.00
2023-01-29T17:50:39.105Z,101040.69
2023-01-29T17:53:47.507Z,101032.28
2023-01-29T17:56:52.315Z,101033.53
2023-01-29T17:59:56.594Z,101025.12
2023-01-29T18:03:02.580Z,101020.69
2023-01-29T18:06:10.233Z,101013.66
2023-01-29T18:09:14.850Z,101011.22
2023-01-29T18:12:17.745Z,101010.00
2023-01-29T18:15:20.478Z,101011.19
2023-01-29T18:18:24.422Z,101013.00
2023-01-29T18:21:26.745Z,101010.63
2023-01-29T18:24:30.051Z,101006.03
2023-01-29T18:27:32.447Z,101008.66
2023-01-29T18:30:35.141Z,101003.97
2023-01-29T18:33:37.671Z,100996.00
2023-01-29T18:36:40.500Z,100993.75
2023-01-29T18:39:44.169Z,100992.13
2023-01-29T18:42:47.188Z,100998.56
2023-01-29T18:45:49.517Z,100996.69
2023-01-29T18:48:52.458Z,100995.38
2023-01-29T18:51:55.112Z,100995.69
2023-01-29T18:54:57.861Z,100994.53
2023-01-29T18:58:33.663Z,100998.75
2023-01-29T19:01:23.906Z,100986.97
2023-01-29T19:04:26.400Z,100996.94
2023-01-29T19:07:30.154Z,100994.34
2023-01-29T19:10:32.848Z,100996.25
2023-01-29T19:13:36.475Z,101002.69
2023-01-29T19:16:38.921Z,101000.00
2023-01-29T19:19:41.791Z,100991.78
2023-01-29T19:22:44.562Z,100988.53
2023-01-29T19:25:47.825Z,100984.56
2023-01-29T19:28:51.047Z,100986.34
2023-01-29T19:31:53.779Z,100977.94
2023-01-29T19:34:57.737Z,100990.19
2023-01-29T19:38:01.159Z,100982.84
2023-01-29T19:41:05.361Z,100982.63
2023-01-29T19:44:08.108Z,100974.50
2023-01-29T19:47:10.563Z,100970.78
2023-01-29T19:50:13.195Z,100974.25
2023-01-29T19:53:15.431Z,100972.63
2023-01-29T19:56:19.907Z,100973.81
2023-01-29T19:59:22.843Z,100966.91
2023-01-29T20:02:25.552Z,100968.56
2023-01-29T20:05:28.177Z,100967.81
2023-01-29T20:08:31.351Z,100970.47
2023-01-29T20:11:34.096Z,100971.88
2023-01-29T20:14:36.289Z,100969.63
2023-01-29T20:17:39.051Z,100973.66
2023-01-29T20:20:42.992Z,100968.63
2023-01-29T20:23:46.046Z,100964.97
2023-01-29T20:26:48.424Z,100965.94
2023-01-29T20:29:52.703Z,100965.56
2023-01-29T20:32:55.289Z,100964.31
2023-01-29T20:36:00.879Z,100957.41
2023-01-29T20:39:03.412Z,100955.19
2023-01-29T20:42:06.014Z,100944.94
2023-01-29T20:45:08.666Z,100952.13
2023-01-29T20:48:11.275Z,100949.16
2023-01-29T20:51:16.655Z,100943.47
2023-01-29T20:54:19.608Z,100935.91
2023-01-29T20:57:22.076Z,100939.13
2023-01-29T21:00:24.722Z,100942.47
2023-01-29T21:03:28.003Z,100949.78
2023-01-29T21:06:31.110Z,100947.69
2023-01-29T21:09:33.490Z,100952.78
2023-01-29T21:12:36.193Z,100948.94
2023-01-29T21:15:38.899Z,100958.09
2023-01-29T21:18:41.828Z,100960.94
2023-01-29T21:21:44.086Z,100964.88
2023-01-29T21:24:46.744Z,100969.84
2023-01-29T21:27:50.098Z,100982.25
2023-01-29T21:31:02.668Z,100988.97
2023-01-29T21:34:05.224Z,100990.53
2023-01-29T21:37:09.377Z,100980.16
2023-01-29T21:40:12.814Z,100976.37
2023-01-29T21:43:16.034Z,100974.97
2023-01-29T21:46:18.300Z,100977.62
2023-01-29T21:49:21.150Z,100978.66
2023-01-29T21:52:23.395Z,100974.88
2023-01-29T21:55:26.087Z,100975.06
2023-01-29T21:58:28.857Z,100972.03
2023-01-29T22:01:38.198Z,100967.53
2023-01-29T22:04:42.480Z,100965.97
2023-01-29T22:07:45.065Z,100959.63
2023-01-29T22:10:47.896Z,100950.44
2023-01-29T22:13:50.195Z,100946.59
2023-01-29T22:16:52.749Z,100945.63
2023-01-29T22:19:55.143Z,100934.25
2023-01-29T22:23:00.300Z,100941.53
2023-01-29T22:26:04.172Z,100931.97
2023-01-29T22:29:06.729Z,100933.19
2023-01-29T22:32:10.239Z,100931.97
2023-01-29T22:35:13.271Z,100926.91
2023-01-29T22:38:15.555Z,100927.31
2023-01-29T22:41:18.172Z,100922.19
2023-01-29T22:44:21.437Z,100910.22
2023-01-29T22:47:24.010Z,100905.94
2023-01-29T22:50:26.303Z,100905.94
2023-01-29T22:53:28.827Z,100903.06
2023-01-29T22:56:31.181Z,100902.25
2023-01-29T22:59:33.880Z,100901.25
2023-01-29T23:02:37.364Z,100906.56
2023-01-29T23:05:39.885Z,100899.66
2023-01-29T23:08:42.196Z,100895.19
2023-01-29T23:11:45.002Z,100894.78
2023-01-29T23:14:47.308Z,100887.87
2023-01-29T23:17:49.856Z,100891.53
2023-01-29T23:20:56.834Z,100884.59
2023-01-29T23:24:00.535Z,100881.34
2023-01-29T23:27:14.930Z,100879.94
2023-01-29T23:30:17.849Z,100882.19
2023-01-29T23:33:20.514Z,100877.69
2023-01-29T23:36:23.467Z,100873.59
2023-01-29T23:39:25.759Z,100870.13
2023-01-29T23:42:28.346Z,100863.22
2023-01-29T23:45:30.582Z,100860.16
2023-01-29T23:48:33.320Z,100861.38
2023-01-29T23:51:35.560Z,100855.53
2023-01-29T23:54:38.087Z,100850.63
2023-01-29T23:57:40.301Z,100855.31
